Terminal Aerodrome Forecast
Issued by NWS

Home | Current Version | Previous Version | Text Only | Print | Product List | Glossary Off
Versions: 1 2 3 4 5 6 7 8 9 10 11 12 13 14 15 16 17 18 19 20

811
FTUS43 KBIS 201124
TAFJMS
TAF
KJMS 201124Z 2012/2112 35010KT 3SM -SN OVC025
     FM201700 32012G18KT P6SM BKN035
     FM202200 29010KT P6SM SCT060
     FM211000 25007KT P6SM SKC=

USA.gov is the U.S. government's official web portal to all federal, state and local government web resources and services.